createdAt,value
2018-08-28T00:00:49.713Z,18.57
2018-08-28T00:01:49.643Z,18.66
2018-08-28T00:02:49.573Z,18.52
2018-08-28T00:03:49.504Z,18.58
2018-08-28T00:04:49.424Z,18.62
2018-08-28T00:05:49.367Z,18.65
2018-08-28T00:06:49.287Z,18.69
2018-08-28T00:07:49.224Z,18.58
2018-08-28T00:08:49.140Z,18.63
2018-08-28T00:09:49.073Z,18.55
2018-08-28T00:10:49.024Z,18.63
2018-08-28T00:11:48.936Z,18.62
2018-08-28T00:12:48.858Z,18.58
2018-08-28T00:13:48.792Z,18.55
2018-08-28T00:14:48.714Z,18.54
2018-08-28T00:15:48.644Z,18.50
2018-08-28T00:16:48.570Z,18.54
2018-08-28T00:17:48.501Z,18.54
2018-08-28T00:18:48.490Z,18.58
2018-08-28T00:19:48.361Z,18.54
2018-08-28T00:20:48.287Z,18.52
2018-08-28T00:21:48.216Z,18.55
2018-08-28T00:22:48.145Z,18.51
2018-08-28T00:23:48.075Z,18.50
2018-08-28T00:24:48.003Z,18.45
2018-08-28T00:25:47.931Z,18.50
2018-08-28T00:26:47.863Z,18.47
2018-08-28T00:27:47.792Z,18.50
2018-08-28T00:28:47.718Z,18.50
2018-08-28T00:29:47.646Z,18.39
2018-08-28T00:30:47.573Z,18.44
2018-08-28T00:31:47.501Z,18.48
2018-08-28T00:32:47.437Z,18.54
2018-08-28T00:33:47.368Z,18.44
2018-08-28T00:34:47.290Z,18.48
2018-08-28T00:35:47.219Z,18.39
2018-08-28T00:36:47.147Z,18.45
2018-08-28T00:37:47.069Z,18.36
2018-08-28T00:38:47.002Z,18.37
2018-08-28T00:39:46.934Z,18.37
2018-08-28T00:40:46.858Z,18.37
2018-08-28T00:41:46.788Z,18.41
2018-08-28T00:42:46.716Z,18.37
2018-08-28T00:43:46.657Z,18.44
2018-08-28T00:44:46.615Z,18.37
2018-08-28T00:45:46.505Z,18.36
2018-08-28T00:46:46.431Z,18.44
2018-08-28T00:47:46.359Z,18.37
2018-08-28T00:48:46.282Z,18.42
2018-08-28T00:49:46.221Z,18.36
2018-08-28T00:50:46.145Z,18.35
2018-08-28T00:51:46.074Z,18.37
2018-08-28T00:52:46.005Z,18.41
2018-08-28T00:53:45.929Z,18.44
2018-08-28T00:54:45.856Z,18.44
2018-08-28T00:55:45.795Z,18.39
2018-08-28T00:56:45.715Z,18.36
2018-08-28T00:57:45.641Z,18.32
2018-08-28T00:58:45.571Z,18.37
2018-08-28T00:59:45.501Z,18.36
2018-08-28T01:00:45.429Z,18.45
2018-08-28T01:01:45.358Z,18.36
2018-08-28T01:02:45.287Z,18.42
2018-08-28T01:03:45.215Z,18.37
2018-08-28T01:04:45.162Z,18.44
2018-08-28T01:05:45.071Z,18.36
2018-08-28T01:06:45.000Z,18.35
2018-08-28T01:07:44.930Z,18.36
2018-08-28T01:08:44.857Z,18.33
2018-08-28T01:09:44.785Z,18.32
2018-08-28T01:10:44.720Z,18.35
2018-08-28T01:11:44.643Z,18.39
2018-08-28T01:12:44.574Z,18.33
2018-08-28T01:13:44.503Z,18.37
2018-08-28T01:14:44.450Z,18.45
2018-08-28T01:15:44.358Z,18.35
2018-08-28T01:16:44.288Z,18.35
2018-08-28T01:17:44.215Z,18.45
2018-08-28T01:18:44.143Z,18.39
2018-08-28T01:19:44.072Z,18.41
2018-08-28T01:20:44.003Z,18.32
2018-08-28T01:21:43.930Z,18.37
2018-08-28T01:22:43.857Z,18.39
2018-08-28T01:23:43.786Z,18.33
2018-08-28T01:24:43.713Z,18.41
2018-08-28T01:25:43.643Z,18.33
2018-08-28T01:26:43.569Z,18.29
2018-08-28T01:27:43.501Z,18.29
2018-08-28T01:28:43.427Z,18.29
2018-08-28T01:29:43.359Z,18.35
2018-08-28T01:30:43.283Z,18.26
2018-08-28T01:31:43.213Z,18.32
2018-08-28T01:32:43.141Z,18.26
2018-08-28T01:33:43.069Z,18.27
2018-08-28T01:34:42.999Z,18.32
2018-08-28T01:35:42.930Z,18.21
2018-08-28T01:36:42.856Z,18.27
2018-08-28T01:37:42.785Z,18.27
2018-08-28T01:38:42.715Z,18.21
2018-08-28T01:39:42.642Z,18.26
2018-08-28T01:40:42.569Z,18.26
2018-08-28T01:41:42.498Z,18.27
2018-08-28T01:42:42.424Z,18.21
2018-08-28T01:43:42.355Z,18.23
2018-08-28T01:44:42.286Z,18.26
2018-08-28T01:45:42.214Z,18.20
2018-08-28T01:46:42.146Z,18.27
2018-08-28T01:47:42.084Z,18.25
2018-08-28T01:48:41.995Z,18.21
2018-08-28T01:49:41.924Z,18.26
2018-08-28T01:50:41.852Z,18.21
2018-08-28T01:51:41.782Z,18.27
2018-08-28T01:52:41.709Z,18.26
2018-08-28T01:53:41.642Z,18.27
2018-08-28T01:54:41.568Z,18.26
2018-08-28T01:55:41.495Z,18.32
2018-08-28T01:56:41.422Z,18.27
2018-08-28T01:57:41.351Z,18.27
2018-08-28T01:58:41.280Z,18.25
2018-08-28T01:59:41.216Z,18.32
2018-08-28T02:00:41.133Z,18.29
2018-08-28T02:01:41.063Z,18.29
2018-08-28T02:02:40.996Z,18.25
2018-08-28T02:03:40.925Z,18.26
2018-08-28T02:04:40.848Z,18.18
2018-08-28T02:05:40.783Z,18.21
2018-08-28T02:06:40.708Z,18.14
2018-08-28T02:07:40.637Z,18.12
2018-08-28T02:08:40.566Z,18.17
2018-08-28T02:09:40.490Z,18.17
2018-08-28T02:10:40.419Z,18.17
2018-08-28T02:11:40.351Z,18.07
2018-08-28T02:12:40.280Z,18.10
2018-08-28T02:13:40.205Z,18.02
2018-08-28T02:14:40.138Z,18.07
2018-08-28T02:15:40.063Z,18.07
2018-08-28T02:16:39.989Z,18.08
2018-08-28T02:17:39.918Z,18.03
2018-08-28T02:18:39.848Z,18.05
2018-08-28T02:19:39.773Z,18.02
2018-08-28T02:20:39.705Z,18.11
2018-08-28T02:21:39.631Z,18.05
2018-08-28T02:22:39.563Z,17.99
2018-08-28T02:23:39.489Z,18.08
2018-08-28T02:24:39.416Z,17.92
2018-08-28T02:25:39.347Z,18.00
2018-08-28T02:26:39.276Z,17.86
2018-08-28T02:27:39.204Z,17.78
2018-08-28T02:28:39.131Z,17.82
2018-08-28T02:29:39.065Z,17.84
2018-08-28T02:30:38.988Z,17.79
2018-08-28T02:31:38.915Z,17.68
2018-08-28T02:32:38.842Z,17.70
2018-08-28T02:33:38.873Z,17.56
2018-08-28T02:34:38.700Z,17.51
2018-08-28T02:35:38.626Z,17.51
2018-08-28T02:36:38.555Z,17.44
2018-08-28T02:37:38.486Z,17.37
2018-08-28T02:38:38.411Z,17.31
2018-08-28T02:39:38.344Z,17.31
2018-08-28T02:40:38.267Z,17.22
2018-08-28T02:41:38.190Z,17.21
2018-08-28T02:42:38.131Z,17.28
2018-08-28T02:43:38.052Z,17.31
2018-08-28T02:44:37.977Z,17.28
2018-08-28T02:45:37.910Z,17.30
2018-08-28T02:46:37.837Z,17.30
2018-08-28T02:47:37.765Z,17.21
2018-08-28T02:48:37.693Z,17.15
2018-08-28T02:49:37.620Z,17.18
2018-08-28T02:50:37.550Z,17.22
2018-08-28T02:51:37.476Z,17.18
2018-08-28T02:52:37.408Z,17.31
2018-08-28T02:53:37.332Z,17.30
2018-08-28T02:54:37.261Z,17.23
2018-08-28T02:55:37.186Z,17.23
2018-08-28T02:56:37.113Z,17.21
2018-08-28T02:57:37.045Z,17.07
2018-08-28T02:58:36.974Z,16.86
2018-08-28T02:59:36.900Z,16.85
2018-08-28T03:00:36.823Z,16.76
2018-08-28T03:01:36.755Z,16.73
2018-08-28T03:02:36.683Z,16.73
2018-08-28T03:03:36.615Z,16.66
2018-08-28T03:04:36.537Z,16.66
2018-08-28T03:05:36.466Z,16.70
2018-08-28T03:06:36.393Z,16.57
2018-08-28T03:07:36.322Z,16.57
2018-08-28T03:08:36.248Z,16.58
2018-08-28T03:09:36.182Z,16.58
2018-08-28T03:10:36.104Z,16.57
2018-08-28T03:11:36.141Z,16.61
2018-08-28T03:12:35.960Z,16.61
2018-08-28T03:13:35.885Z,16.56
2018-08-28T03:14:35.834Z,16.53
2018-08-28T03:15:35.800Z,16.48
2018-08-28T03:16:35.672Z,16.60
2018-08-28T03:17:35.594Z,16.63
2018-08-28T03:18:35.522Z,16.56
2018-08-28T03:19:35.457Z,16.67
2018-08-28T03:20:35.376Z,16.60
2018-08-28T03:21:35.306Z,16.53
2018-08-28T03:22:35.230Z,16.45
2018-08-28T03:23:35.158Z,16.42
2018-08-28T03:24:35.086Z,16.35
2018-08-28T03:25:35.014Z,16.33
2018-08-28T03:26:34.940Z,16.28
2018-08-28T03:27:34.870Z,16.34
2018-08-28T03:28:34.803Z,16.39
2018-08-28T03:29:34.721Z,16.33
2018-08-28T03:30:34.652Z,16.21
2018-08-28T03:31:34.573Z,16.21
2018-08-28T03:32:34.504Z,16.20
2018-08-28T03:33:34.436Z,16.11
2018-08-28T03:34:34.355Z,16.11
2018-08-28T03:35:34.286Z,16.17
2018-08-28T03:36:34.216Z,16.09
2018-08-28T03:37:34.143Z,16.07
2018-08-28T03:38:34.070Z,16.12
2018-08-28T03:39:33.996Z,15.97
2018-08-28T03:40:33.921Z,15.96
2018-08-28T03:41:33.847Z,15.93
2018-08-28T03:42:33.779Z,15.96
2018-08-28T03:43:33.706Z,16.01
2018-08-28T03:44:33.660Z,15.84
2018-08-28T03:45:33.557Z,15.90
2018-08-28T03:46:33.494Z,15.90
2018-08-28T03:47:33.418Z,15.80
2018-08-28T03:48:33.340Z,15.87
2018-08-28T03:49:33.266Z,15.84
2018-08-28T03:50:33.194Z,15.84
2018-08-28T03:51:33.126Z,15.86
2018-08-28T03:52:33.048Z,15.84
2018-08-28T03:53:32.973Z,15.90
2018-08-28T03:54:32.928Z,15.93
2018-08-28T03:55:32.925Z,15.94
2018-08-28T03:56:32.757Z,15.92
2018-08-28T03:57:32.682Z,15.86
2018-08-28T03:58:32.609Z,15.84
2018-08-28T03:59:32.537Z,15.86
2018-08-28T04:00:32.463Z,15.84
2018-08-28T04:01:32.391Z,15.72
2018-08-28T04:02:32.320Z,15.62
2018-08-28T04:03:32.260Z,15.57
2018-08-28T04:04:32.172Z,15.57
2018-08-28T04:05:32.101Z,15.44
2018-08-28T04:06:32.027Z,15.41
2018-08-28T04:07:31.973Z,15.43
2018-08-28T04:08:31.879Z,15.46
2018-08-28T04:09:31.808Z,15.44
2018-08-28T04:10:31.734Z,15.50
2018-08-28T04:11:31.660Z,15.46
2018-08-28T04:12:31.588Z,15.36
2018-08-28T04:13:31.515Z,15.35
2018-08-28T04:14:31.450Z,15.28
2018-08-28T04:15:31.368Z,15.31
2018-08-28T04:16:31.301Z,15.39
2018-08-28T04:17:31.222Z,15.44
2018-08-28T04:18:31.150Z,15.36
2018-08-28T04:19:31.074Z,15.38
2018-08-28T04:20:31.001Z,15.35
2018-08-28T04:21:30.928Z,15.34
2018-08-28T04:22:30.869Z,15.25
2018-08-28T04:23:30.785Z,15.29
2018-08-28T04:24:30.710Z,15.32
2018-08-28T04:25:30.635Z,15.36
2018-08-28T04:26:30.564Z,15.29
2018-08-28T04:27:30.494Z,15.27
2018-08-28T04:28:30.414Z,15.27
2018-08-28T04:29:30.344Z,15.36
2018-08-28T04:30:30.286Z,15.31
2018-08-28T04:31:30.197Z,15.31
2018-08-28T04:32:30.122Z,15.38
2018-08-28T04:33:30.050Z,15.31
2018-08-28T04:34:29.977Z,15.34
2018-08-28T04:35:29.901Z,15.31
2018-08-28T04:36:29.829Z,15.27
2018-08-28T04:37:29.754Z,15.31
2018-08-28T04:38:29.681Z,15.16
2018-08-28T04:39:29.608Z,15.10
2018-08-28T04:40:29.534Z,15.03
2018-08-28T04:41:29.461Z,15.01
2018-08-28T04:42:29.387Z,14.89
2018-08-28T04:43:29.319Z,14.91
2018-08-28T04:44:29.245Z,14.78
2018-08-28T04:45:29.167Z,14.91
2018-08-28T04:46:29.094Z,14.80
2018-08-28T04:47:29.020Z,14.88
2018-08-28T04:48:29.013Z,14.80
2018-08-28T04:49:28.873Z,14.78
2018-08-28T04:50:28.802Z,14.80
2018-08-28T04:51:28.729Z,14.78
2018-08-28T04:52:28.653Z,14.78
2018-08-28T04:53:28.574Z,14.78
2018-08-28T04:54:28.510Z,14.78
2018-08-28T04:55:28.436Z,14.77
2018-08-28T04:56:28.358Z,14.75
2018-08-28T04:57:28.287Z,14.78
2018-08-28T04:58:28.214Z,14.72
2018-08-28T04:59:28.137Z,14.86
2018-08-28T05:00:28.064Z,14.86
2018-08-28T05:01:27.989Z,14.75
2018-08-28T05:02:27.916Z,14.75
2018-08-28T05:03:27.843Z,14.75
2018-08-28T05:04:27.770Z,14.77
2018-08-28T05:05:27.699Z,14.69
2018-08-28T05:06:27.642Z,14.78
2018-08-28T05:07:27.549Z,14.81
2018-08-28T05:08:27.474Z,14.88
2018-08-28T05:09:27.401Z,14.77
2018-08-28T05:10:27.330Z,14.73
2018-08-28T05:11:27.257Z,14.72
2018-08-28T05:12:27.183Z,14.69
2018-08-28T05:13:27.109Z,14.72
2018-08-28T05:14:27.031Z,14.65
2018-08-28T05:15:26.958Z,14.68
2018-08-28T05:16:26.885Z,14.61
2018-08-28T05:17:26.811Z,14.58
2018-08-28T05:18:26.747Z,14.62
2018-08-28T05:19:26.797Z,14.78
2018-08-28T05:20:26.590Z,14.65
2018-08-28T05:21:26.516Z,14.70
2018-08-28T05:22:26.450Z,14.72
2018-08-28T05:23:26.369Z,14.62
2018-08-28T05:24:26.296Z,14.64
2018-08-28T05:25:26.232Z,14.60
2018-08-28T05:26:26.148Z,14.57
2018-08-28T05:27:26.074Z,14.62
2018-08-28T05:28:25.999Z,14.65
2018-08-28T05:29:25.935Z,14.64
2018-08-28T05:30:25.935Z,14.68
2018-08-28T05:31:25.786Z,14.70
2018-08-28T05:32:25.746Z,14.69
2018-08-28T05:33:25.632Z,14.72
2018-08-28T05:34:25.556Z,14.61
2018-08-28T05:35:25.483Z,14.75
2018-08-28T05:36:25.410Z,14.78
2018-08-28T05:37:25.336Z,14.94
2018-08-28T05:38:25.269Z,14.92
2018-08-28T05:39:25.192Z,14.83
2018-08-28T05:40:25.116Z,14.88
2018-08-28T05:41:25.047Z,14.78
2018-08-28T05:42:24.966Z,14.80
2018-08-28T05:43:24.895Z,14.80
2018-08-28T05:44:24.819Z,14.83
2018-08-28T05:45:24.746Z,14.86
2018-08-28T05:46:24.671Z,14.83
2018-08-28T05:47:24.602Z,14.86
2018-08-28T05:48:24.524Z,14.84
2018-08-28T05:49:24.452Z,14.81
2018-08-28T05:50:24.382Z,14.83
2018-08-28T05:51:24.303Z,14.91
2018-08-28T05:52:24.239Z,14.83
2018-08-28T05:53:24.156Z,14.94
2018-08-28T05:54:24.083Z,14.94
2018-08-28T05:55:24.011Z,15.01
2018-08-28T05:56:23.934Z,15.02
2018-08-28T05:57:23.866Z,14.98
2018-08-28T05:58:23.788Z,14.99
2018-08-28T05:59:23.717Z,15.01
2018-08-28T06:00:23.642Z,15.02
2018-08-28T06:01:23.568Z,15.02
2018-08-28T06:02:23.498Z,15.03
2018-08-28T06:03:23.530Z,15.13
2018-08-28T06:04:23.349Z,15.06
2018-08-28T06:05:23.274Z,15.10
2018-08-28T06:06:23.201Z,15.10
2018-08-28T06:07:23.131Z,15.10
2018-08-28T06:08:23.052Z,15.17
2018-08-28T06:09:22.978Z,15.21
2018-08-28T06:10:22.905Z,15.27
2018-08-28T06:11:22.831Z,15.28
2018-08-28T06:12:22.756Z,15.32
2018-08-28T06:13:22.692Z,15.34
2018-08-28T06:14:22.614Z,15.43
2018-08-28T06:15:22.540Z,15.46
2018-08-28T06:16:22.466Z,15.41
2018-08-28T06:17:22.392Z,15.46
2018-08-28T06:18:22.318Z,15.46
2018-08-28T06:19:22.295Z,15.54
2018-08-28T06:20:22.170Z,15.59
2018-08-28T06:21:22.097Z,15.59
2018-08-28T06:22:22.025Z,15.69
2018-08-28T06:23:21.953Z,15.74
2018-08-28T06:24:21.877Z,15.74
2018-08-28T06:25:21.807Z,15.72
2018-08-28T06:26:21.733Z,15.76
2018-08-28T06:27:21.660Z,15.75
2018-08-28T06:28:21.584Z,15.80
2018-08-28T06:29:21.510Z,15.78
2018-08-28T06:30:21.437Z,15.86
2018-08-28T06:31:21.364Z,15.84
2018-08-28T06:32:21.287Z,15.92
2018-08-28T06:33:21.235Z,15.92
2018-08-28T06:34:21.149Z,15.93
2018-08-28T06:35:21.073Z,16.07
2018-08-28T06:36:20.997Z,16.14
2018-08-28T06:37:20.986Z,16.11
2018-08-28T06:38:20.866Z,16.21
2018-08-28T06:39:20.781Z,16.23
2018-08-28T06:40:20.709Z,16.14
2018-08-28T06:41:20.633Z,16.23
2018-08-28T06:42:20.560Z,16.24
2018-08-28T06:43:20.510Z,16.30
2018-08-28T06:44:20.415Z,16.27
2018-08-28T06:45:20.342Z,16.31
2018-08-28T06:46:20.268Z,16.30
2018-08-28T06:47:20.195Z,16.17
2018-08-28T06:48:20.122Z,16.21
2018-08-28T06:49:20.052Z,16.28
2018-08-28T06:50:19.977Z,16.28
2018-08-28T06:51:19.904Z,16.33
2018-08-28T06:52:19.832Z,16.39
2018-08-28T06:53:19.759Z,16.43
2018-08-28T06:54:19.686Z,16.45
2018-08-28T06:55:19.614Z,16.45
2018-08-28T06:56:19.539Z,16.45
2018-08-28T06:57:19.469Z,16.52
2018-08-28T06:58:19.394Z,16.57
2018-08-28T06:59:19.322Z,16.63
2018-08-28T07:00:19.251Z,16.70
2018-08-28T07:01:19.174Z,16.73
2018-08-28T07:02:19.110Z,16.76
2018-08-28T07:03:19.031Z,16.73
2018-08-28T07:04:18.962Z,16.83
2018-08-28T07:05:18.886Z,16.88
2018-08-28T07:06:18.813Z,16.98
2018-08-28T07:07:18.746Z,17.01
2018-08-28T07:08:18.669Z,17.06
2018-08-28T07:09:18.628Z,17.04
2018-08-28T07:10:18.611Z,17.18
2018-08-28T07:11:18.449Z,17.15
2018-08-28T07:12:18.378Z,17.18
2018-08-28T07:13:18.305Z,17.16
2018-08-28T07:14:18.234Z,17.28
2018-08-28T07:15:18.159Z,17.37
2018-08-28T07:16:18.088Z,17.37
2018-08-28T07:17:18.014Z,17.38
2018-08-28T07:18:17.942Z,17.41
2018-08-28T07:19:17.880Z,17.37
2018-08-28T07:20:17.796Z,17.37
2018-08-28T07:21:17.724Z,17.51
2018-08-28T07:22:17.651Z,17.51
2018-08-28T07:23:17.580Z,17.52
2018-08-28T07:24:17.509Z,17.59
2018-08-28T07:25:17.430Z,17.66
2018-08-28T07:26:17.367Z,17.71
2018-08-28T07:27:17.297Z,17.81
2018-08-28T07:28:17.222Z,17.81
2018-08-28T07:29:17.147Z,17.87
2018-08-28T07:30:17.074Z,17.86
2018-08-28T07:31:17.058Z,17.92
2018-08-28T07:32:16.930Z,17.99
2018-08-28T07:33:16.861Z,18.05
2018-08-28T07:34:16.786Z,18.11
2018-08-28T07:35:16.715Z,18.11
2018-08-28T07:36:16.641Z,18.11
2018-08-28T07:37:16.586Z,18.14
2018-08-28T07:38:16.499Z,18.30
2018-08-28T07:39:16.429Z,18.26
2018-08-28T07:40:16.353Z,18.33
2018-08-28T07:41:16.287Z,18.36
2018-08-28T07:42:16.215Z,18.29
2018-08-28T07:43:16.140Z,18.36
2018-08-28T07:44:16.133Z,18.32
2018-08-28T07:45:16.023Z,18.35
2018-08-28T07:46:15.955Z,18.47
2018-08-28T07:47:15.853Z,18.58
2018-08-28T07:48:15.792Z,18.58
2018-08-28T07:49:15.708Z,18.67
2018-08-28T07:50:15.638Z,18.69
2018-08-28T07:51:15.565Z,18.72
2018-08-28T07:52:15.515Z,18.73
2018-08-28T07:53:15.421Z,18.81
2018-08-28T07:54:15.355Z,18.82
2018-08-28T07:55:15.280Z,18.70
2018-08-28T07:56:15.209Z,18.85
2018-08-28T07:57:15.137Z,18.88
2018-08-28T07:58:15.064Z,18.94
2018-08-28T07:59:14.991Z,19.00
2018-08-28T08:00:14.924Z,18.91
2018-08-28T08:01:14.855Z,19.02
2018-08-28T08:02:14.778Z,19.00
2018-08-28T08:03:14.713Z,18.99
2018-08-28T08:04:14.642Z,19.16
2018-08-28T08:05:14.565Z,19.13
2018-08-28T08:06:14.497Z,19.22
2018-08-28T08:07:14.423Z,19.29
2018-08-28T08:08:14.362Z,19.37
2018-08-28T08:09:14.279Z,19.48
2018-08-28T08:10:14.210Z,19.44
2018-08-28T08:11:14.139Z,19.56
2018-08-28T08:12:14.068Z,19.54
2018-08-28T08:13:13.994Z,19.44
2018-08-28T08:14:13.924Z,19.56
2018-08-28T08:15:13.855Z,19.63
2018-08-28T08:16:13.850Z,19.66
2018-08-28T08:17:13.707Z,19.68
2018-08-28T08:18:13.645Z,19.77
2018-08-28T08:19:13.574Z,19.71
2018-08-28T08:20:13.500Z,19.71
2018-08-28T08:21:13.427Z,19.81
2018-08-28T08:22:13.376Z,19.80
2018-08-28T08:23:13.288Z,19.81
2018-08-28T08:24:13.217Z,19.66
2018-08-28T08:25:13.146Z,19.68
2018-08-28T08:26:13.072Z,19.63
2018-08-28T08:27:13.008Z,19.77
2018-08-28T08:28:13.158Z,19.84
2018-08-28T08:29:12.865Z,19.84
2018-08-28T08:30:12.792Z,19.84
2018-08-28T08:31:12.726Z,19.87
2018-08-28T08:32:12.657Z,19.83
2018-08-28T08:33:12.584Z,19.94
2018-08-28T08:34:12.509Z,19.96
2018-08-28T08:35:12.445Z,20.03
2018-08-28T08:36:12.368Z,20.23
2018-08-28T08:37:12.300Z,20.24
2018-08-28T08:38:12.230Z,20.33
2018-08-28T08:39:12.158Z,20.41
2018-08-28T08:40:12.088Z,20.39
2018-08-28T08:41:12.019Z,20.41
2018-08-28T08:42:11.970Z,20.18
2018-08-28T08:43:11.878Z,20.03
2018-08-28T08:44:11.808Z,20.17
2018-08-28T08:45:11.741Z,20.24
2018-08-28T08:46:11.667Z,20.23
2018-08-28T08:47:11.604Z,20.28
2018-08-28T08:48:11.532Z,20.29
2018-08-28T08:49:11.461Z,20.35
2018-08-28T08:50:11.387Z,20.62
2018-08-28T08:51:11.318Z,20.50
2018-08-28T08:52:11.246Z,20.69
2018-08-28T08:53:11.180Z,20.58
2018-08-28T08:54:11.108Z,20.61
2018-08-28T08:55:11.039Z,20.66
2018-08-28T08:56:10.969Z,20.80
2018-08-28T08:57:10.959Z,20.91
2018-08-28T08:58:10.829Z,20.92
2018-08-28T08:59:10.762Z,21.04
2018-08-28T09:00:10.688Z,21.17
2018-08-28T09:01:10.618Z,21.12
2018-08-28T09:02:10.569Z,21.04
2018-08-28T09:03:10.480Z,21.17
2018-08-28T09:04:10.411Z,21.65
2018-08-28T09:05:10.340Z,22.03
2018-08-28T09:06:10.370Z,22.17
2018-08-28T09:07:10.206Z,21.75
2018-08-28T09:08:10.137Z,21.67
2018-08-28T09:09:10.067Z,21.27
2018-08-28T09:10:09.995Z,21.28
2018-08-28T09:11:09.934Z,20.98
2018-08-28T09:12:09.901Z,20.69
2018-08-28T09:13:09.789Z,20.62
2018-08-28T09:14:09.722Z,20.43
2018-08-28T09:15:09.654Z,20.33
2018-08-28T09:16:09.589Z,20.32
2018-08-28T09:17:09.514Z,20.23
2018-08-28T09:18:09.448Z,20.21
2018-08-28T09:19:09.407Z,20.23
2018-08-28T09:20:09.308Z,19.99
2018-08-28T09:21:09.246Z,19.94
2018-08-28T09:22:09.171Z,20.08
2018-08-28T09:23:09.102Z,20.14
2018-08-28T09:24:09.035Z,20.14
2018-08-28T09:25:08.961Z,20.23
2018-08-28T09:26:08.894Z,20.24
2018-08-28T09:27:08.825Z,20.17
2018-08-28T09:28:08.754Z,20.24
2018-08-28T09:29:08.686Z,20.14
2018-08-28T09:30:08.620Z,20.08
2018-08-28T09:31:08.619Z,19.95
2018-08-28T09:32:08.513Z,19.98
2018-08-28T09:33:08.407Z,19.99
2018-08-28T09:34:08.344Z,20.01
2018-08-28T09:35:08.268Z,20.03
2018-08-28T09:36:08.196Z,19.96
2018-08-28T09:37:08.130Z,19.99
2018-08-28T09:38:08.059Z,20.06
2018-08-28T09:39:07.990Z,20.17
2018-08-28T09:40:07.917Z,20.21
2018-08-28T09:41:07.848Z,20.10
2018-08-28T09:42:07.780Z,20.11
2018-08-28T09:43:07.709Z,20.23
2018-08-28T09:44:07.638Z,20.21
2018-08-28T09:45:07.568Z,20.21
2018-08-28T09:46:07.501Z,20.21
2018-08-28T09:47:07.429Z,20.21
2018-08-28T09:48:07.398Z,20.10
2018-08-28T09:49:07.287Z,20.11
2018-08-28T09:50:07.279Z,20.20
2018-08-28T09:51:07.190Z,20.20
2018-08-28T09:52:07.082Z,20.33
2018-08-28T09:53:07.011Z,20.43
2018-08-28T09:54:06.946Z,20.64
2018-08-28T09:55:06.870Z,20.66
2018-08-28T09:56:06.800Z,20.70
2018-08-28T09:57:06.731Z,20.70
2018-08-28T09:58:06.665Z,20.69
2018-08-28T09:59:06.596Z,20.72
2018-08-28T10:00:06.523Z,20.82
2018-08-28T10:01:06.449Z,20.87
2018-08-28T10:02:06.387Z,20.82
2018-08-28T10:03:06.314Z,20.94
2018-08-28T10:04:06.243Z,20.99
2018-08-28T10:05:06.175Z,21.03
2018-08-28T10:06:06.106Z,20.94
2018-08-28T10:07:06.031Z,21.12
2018-08-28T10:08:05.972Z,21.13
2018-08-28T10:09:05.896Z,21.12
2018-08-28T10:10:05.826Z,21.10
2018-08-28T10:11:05.846Z,21.17
2018-08-28T10:12:05.688Z,21.29
2018-08-28T10:13:05.621Z,21.42
2018-08-28T10:14:05.549Z,21.71
2018-08-28T10:15:05.475Z,21.67
2018-08-28T10:16:05.409Z,21.79
2018-08-28T10:17:05.341Z,22.03
2018-08-28T10:18:05.270Z,22.00
2018-08-28T10:19:05.195Z,22.03
2018-08-28T10:20:05.135Z,21.80
2018-08-28T10:21:05.070Z,21.69
2018-08-28T10:22:04.994Z,21.69
2018-08-28T10:23:04.925Z,21.75
2018-08-28T10:24:04.857Z,21.79
2018-08-28T10:25:04.789Z,21.86
2018-08-28T10:26:04.719Z,21.91
2018-08-28T10:27:04.654Z,22.02
2018-08-28T10:28:04.582Z,21.82
2018-08-28T10:29:04.514Z,21.75
2018-08-28T10:30:04.445Z,21.84
2018-08-28T10:31:04.377Z,21.92
2018-08-28T10:32:04.310Z,21.98
2018-08-28T10:33:04.248Z,22.03
2018-08-28T10:34:04.176Z,22.06
2018-08-28T10:35:04.107Z,22.09
2018-08-28T10:36:04.034Z,21.43
2018-08-28T10:37:03.969Z,21.44
2018-08-28T10:38:03.928Z,21.58
2018-08-28T10:39:03.831Z,21.64
2018-08-28T10:40:03.769Z,21.65
2018-08-28T10:41:03.699Z,21.61
2018-08-28T10:42:03.627Z,21.59
2018-08-28T10:43:03.556Z,21.67
2018-08-28T10:44:03.489Z,21.82
2018-08-28T10:45:03.417Z,22.00
2018-08-28T10:46:03.423Z,22.07
2018-08-28T10:47:03.291Z,22.33
2018-08-28T10:48:03.216Z,22.33
2018-08-28T10:49:03.149Z,22.51
2018-08-28T10:50:03.080Z,22.49
2018-08-28T10:51:03.008Z,22.64
2018-08-28T10:52:02.940Z,22.73
2018-08-28T10:53:02.941Z,22.37
2018-08-28T10:54:02.807Z,22.02
2018-08-28T10:55:02.736Z,21.67
2018-08-28T10:56:02.669Z,21.32
2018-08-28T10:57:02.599Z,21.13
2018-08-28T10:58:02.528Z,21.21
2018-08-28T10:59:02.461Z,21.58
2018-08-28T11:00:02.392Z,21.75
2018-08-28T11:01:02.338Z,21.91
2018-08-28T11:02:02.251Z,22.02
2018-08-28T11:03:02.192Z,21.88
2018-08-28T11:04:02.118Z,22.06
2018-08-28T11:05:02.053Z,21.96
2018-08-28T11:06:01.983Z,22.06
2018-08-28T11:07:01.917Z,22.22
2018-08-28T11:08:01.846Z,22.25
2018-08-28T11:09:01.783Z,22.39
2018-08-28T11:10:01.710Z,22.33
2018-08-28T11:11:01.641Z,22.43
2018-08-28T11:12:01.568Z,22.43
2018-08-28T11:13:01.501Z,22.72
2018-08-28T11:14:01.433Z,22.57
2018-08-28T11:15:01.363Z,22.62
2018-08-28T11:16:01.333Z,22.72
2018-08-28T11:17:01.228Z,22.70
2018-08-28T11:18:01.157Z,22.75
2018-08-28T11:19:01.094Z,22.85
2018-08-28T11:20:01.021Z,22.79
2018-08-28T11:21:00.954Z,22.75
2018-08-28T11:22:00.881Z,22.70
2018-08-28T11:23:00.886Z,22.72
2018-08-28T11:24:00.752Z,22.67
2018-08-28T11:25:00.677Z,22.76
2018-08-28T11:26:00.614Z,23.00
2018-08-28T11:27:00.541Z,23.32
2018-08-28T11:28:00.475Z,23.53
2018-08-28T11:29:00.413Z,23.35
2018-08-28T11:30:00.363Z,23.31
2018-08-28T11:31:00.271Z,23.31
2018-08-28T11:32:00.200Z,23.19
2018-08-28T11:33:00.132Z,23.46
2018-08-28T11:34:00.067Z,23.97
2018-08-28T11:34:59.996Z,24.32
2018-08-28T11:35:59.929Z,24.64
2018-08-28T11:36:59.871Z,24.58
2018-08-28T11:37:59.796Z,24.08
2018-08-28T11:38:59.730Z,24.09
2018-08-28T11:39:59.667Z,23.78
2018-08-28T11:40:59.596Z,23.79
2018-08-28T11:41:59.530Z,23.90
2018-08-28T11:42:59.465Z,23.46
2018-08-28T11:43:59.401Z,23.57
2018-08-28T11:44:59.335Z,23.31
2018-08-28T11:45:59.268Z,23.50
2018-08-28T11:46:59.230Z,23.20
2018-08-28T11:47:59.136Z,23.12
2018-08-28T11:48:59.069Z,23.12
2018-08-28T11:49:59.001Z,23.27
2018-08-28T11:50:58.935Z,23.07
2018-08-28T11:51:58.870Z,23.19
2018-08-28T11:52:58.802Z,23.22
2018-08-28T11:53:58.735Z,23.17
2018-08-28T11:54:58.666Z,22.98
2018-08-28T11:55:58.603Z,23.07
2018-08-28T11:56:58.539Z,22.98
2018-08-28T11:57:58.468Z,23.10
2018-08-28T11:58:58.404Z,23.17
2018-08-28T11:59:58.340Z,23.22
2018-08-28T12:00:58.266Z,23.36
2018-08-28T12:01:58.224Z,23.31
2018-08-28T12:02:58.134Z,23.47
2018-08-28T12:03:58.065Z,23.50
2018-08-28T12:04:58.047Z,23.46
2018-08-28T12:05:57.934Z,23.39
2018-08-28T12:06:57.912Z,23.43
2018-08-28T12:07:57.796Z,23.47
2018-08-28T12:08:57.732Z,23.47
2018-08-28T12:09:57.660Z,23.51
2018-08-28T12:10:57.593Z,23.57
2018-08-28T12:11:57.530Z,23.55
2018-08-28T12:12:57.472Z,23.42
2018-08-28T12:13:57.387Z,23.32
2018-08-28T12:14:57.322Z,23.28
2018-08-28T12:15:57.257Z,23.17
2018-08-28T12:16:57.186Z,23.23
2018-08-28T12:17:57.121Z,23.40
2018-08-28T12:18:57.054Z,23.50
2018-08-28T12:19:56.983Z,23.51
2018-08-28T12:20:56.960Z,23.54
2018-08-28T12:21:56.848Z,23.50
2018-08-28T12:22:56.782Z,23.61
2018-08-28T12:23:56.708Z,23.53
2018-08-28T12:24:56.641Z,23.43
2018-08-28T12:25:56.575Z,23.48
2018-08-28T12:26:56.515Z,23.51
2018-08-28T12:27:56.442Z,23.47
2018-08-28T12:28:56.375Z,23.36
2018-08-28T12:29:56.303Z,23.48
2018-08-28T12:30:56.235Z,23.47
2018-08-28T12:31:56.165Z,23.43
2018-08-28T12:32:56.099Z,23.51
2018-08-28T12:33:56.032Z,23.55
2018-08-28T12:34:55.963Z,23.63
2018-08-28T12:35:55.901Z,23.69
2018-08-28T12:36:55.968Z,23.61
2018-08-28T12:37:55.766Z,23.68
2018-08-28T12:38:55.691Z,23.57
2018-08-28T12:39:55.625Z,23.68
2018-08-28T12:40:55.553Z,23.80
2018-08-28T12:41:55.496Z,23.78
2018-08-28T12:42:55.419Z,23.91
2018-08-28T12:43:55.395Z,23.90
2018-08-28T12:44:55.304Z,23.93
2018-08-28T12:45:55.216Z,23.91
2018-08-28T12:46:55.151Z,24.00
2018-08-28T12:47:55.076Z,23.93
2018-08-28T12:48:55.016Z,23.84
2018-08-28T12:49:54.941Z,23.87
2018-08-28T12:50:54.882Z,23.87
2018-08-28T12:51:54.808Z,24.02